createdAt,value
2018-09-25T00:02:49.290Z,103139.96
2018-09-25T00:07:57.902Z,103135.76
2018-09-25T00:13:06.556Z,103132.39
2018-09-25T00:18:15.226Z,103140.76
2018-09-25T00:23:23.806Z,103165.65
2018-09-25T00:28:32.482Z,103165.93
2018-09-25T00:33:40.986Z,103162.42
2018-09-25T00:38:49.688Z,103166.01
2018-09-25T00:43:58.391Z,103159.98
2018-09-25T00:49:07.215Z,103152.64
2018-09-25T00:54:15.952Z,103148.35
2018-09-25T00:59:24.549Z,103147.05
2018-09-25T01:04:33.323Z,103150.02
2018-09-25T01:09:41.998Z,103151.66
2018-09-25T01:14:50.731Z,103156.45
2018-09-25T01:19:59.641Z,103160.69
2018-09-25T01:25:08.393Z,103161.86
2018-09-25T01:30:17.202Z,103166.11
2018-09-25T01:35:25.773Z,103165.66
2018-09-25T01:40:34.675Z,103171.28
2018-09-25T01:45:43.406Z,103173.80
2018-09-25T01:50:52.119Z,103169.75
2018-09-25T01:56:00.851Z,103173.56
2018-09-25T02:01:09.450Z,103169.96
2018-09-25T02:06:18.035Z,103166.41
2018-09-25T02:11:26.596Z,103172.88
2018-09-25T02:16:35.350Z,103181.48
2018-09-25T02:21:43.991Z,103186.27
2018-09-25T02:26:52.716Z,103186.27
2018-09-25T02:32:01.360Z,103192.95
2018-09-25T02:37:10.187Z,103194.78
2018-09-25T02:42:18.930Z,103203.50
2018-09-25T02:47:27.671Z,103201.34
2018-09-25T02:52:36.417Z,103203.79
2018-09-25T02:57:44.987Z,103207.94
2018-09-25T03:02:53.657Z,103210.30
2018-09-25T03:08:02.176Z,103210.73
2018-09-25T03:13:10.866Z,103217.90
2018-09-25T03:18:19.646Z,103212.34
2018-09-25T03:23:28.330Z,103221.68
2018-09-25T03:28:36.913Z,103221.34
2018-09-25T03:33:45.459Z,103220.96
2018-09-25T03:38:54.116Z,103219.83
2018-09-25T03:44:02.738Z,103219.93
2018-09-25T03:49:11.481Z,103224.55
2018-09-25T03:54:20.174Z,103221.72
2018-09-25T03:59:29.618Z,103229.31
2018-09-25T04:04:38.200Z,103216.31
2018-09-25T04:09:47.042Z,103219.00
2018-09-25T04:14:55.598Z,103225.98
2018-09-25T04:20:04.345Z,103232.59
2018-09-25T04:25:13.142Z,103238.61
2018-09-25T04:30:21.828Z,103239.79
2018-09-25T04:35:30.431Z,103248.91
2018-09-25T04:40:39.288Z,103252.28
2018-09-25T04:45:48.115Z,103251.86
2018-09-25T04:50:57.160Z,103261.11
2018-09-25T04:56:05.898Z,103264.72
2018-09-25T05:01:14.578Z,103263.44
2018-09-25T05:06:23.258Z,103271.55
2018-09-25T05:11:32.067Z,103283.61
2018-09-25T05:16:40.775Z,103290.50
2018-09-25T05:21:49.536Z,103290.20
2018-09-25T05:26:58.211Z,103302.91
2018-09-25T05:32:07.023Z,103303.88
2018-09-25T05:37:15.590Z,103290.61
2018-09-25T05:42:24.240Z,103294.72
2018-09-25T05:47:32.868Z,103290.39
2018-09-25T05:52:41.891Z,103287.45
2018-09-25T05:57:50.545Z,103289.75
2018-09-25T06:08:44.406Z,103321.78
2018-09-25T06:13:53.170Z,103328.89
2018-09-25T06:19:01.862Z,103335.61
2018-09-25T06:24:10.778Z,103333.56
2018-09-25T06:29:19.615Z,103335.04
2018-09-25T06:34:28.309Z,103344.81
2018-09-25T06:39:37.083Z,103346.30
2018-09-25T06:44:45.896Z,103342.55
2018-09-25T06:49:54.649Z,103346.25
2018-09-25T06:55:03.345Z,103345.06
2018-09-25T07:00:12.084Z,103349.05
2018-09-25T07:05:20.913Z,103348.66
2018-09-25T07:10:29.766Z,103354.84
2018-09-25T07:15:38.263Z,103369.34
2018-09-25T07:20:47.064Z,103376.00
2018-09-25T07:25:55.605Z,103393.59
2018-09-25T07:31:04.530Z,103394.57
2018-09-25T07:36:13.220Z,103398.19
2018-09-25T07:41:21.830Z,103406.09
2018-09-25T07:46:30.641Z,103411.00
2018-09-25T07:51:39.487Z,103415.48
2018-09-25T07:56:48.194Z,103423.85
2018-09-25T08:01:56.781Z,103423.06
2018-09-25T08:07:05.364Z,103428.38
2018-09-25T08:12:14.073Z,103422.28
2018-09-25T08:17:22.903Z,103435.05
2018-09-25T08:22:31.479Z,103446.94
2018-09-25T08:27:40.320Z,103440.84
2018-09-25T08:32:49.102Z,103448.29
2018-09-25T08:37:57.805Z,103455.74
2018-09-25T08:43:06.530Z,103466.67
2018-09-25T08:48:15.279Z,103455.72
2018-09-25T08:53:23.961Z,103462.72
2018-09-25T08:58:32.671Z,103463.57
2018-09-25T09:03:41.479Z,103465.73
2018-09-25T09:08:50.187Z,103480.16
2018-09-25T09:13:58.798Z,103480.61
2018-09-25T09:19:07.505Z,103482.78
2018-09-25T09:24:16.381Z,103481.43
2018-09-25T09:29:25.173Z,103480.06
2018-09-25T09:34:33.955Z,103482.17
2018-09-25T09:39:42.707Z,103480.73
2018-09-25T09:44:51.436Z,103474.09
2018-09-25T09:50:00.159Z,103475.31
2018-09-25T09:55:08.852Z,103462.89
2018-09-25T10:00:17.464Z,103464.08
2018-09-25T10:05:26.219Z,103470.64
2018-09-25T10:10:35.050Z,103481.53
2018-09-25T10:15:43.762Z,103471.45
2018-09-25T10:20:52.464Z,103473.37
2018-09-25T10:26:01.355Z,103476.82
2018-09-25T10:31:10.144Z,103458.58
2018-09-25T10:36:20.007Z,103462.55
2018-09-25T10:41:29.844Z,103472.45
2018-09-25T10:46:39.175Z,103474.47
2018-09-25T10:51:48.198Z,103467.14
2018-09-25T10:56:57.981Z,103460.41
2018-09-25T11:02:07.303Z,103464.05
2018-09-25T11:07:16.208Z,103465.69
2018-09-25T11:12:25.572Z,103462.83
2018-09-25T11:17:35.209Z,103464.60
2018-09-25T11:22:44.656Z,103469.59
2018-09-25T11:27:54.031Z,103470.73
2018-09-25T11:33:02.943Z,103472.14
2018-09-25T11:38:12.196Z,103466.77
2018-09-25T11:43:21.543Z,103468.36
2018-09-25T11:48:30.262Z,103458.90
2018-09-25T11:53:39.811Z,103464.25
2018-09-25T11:58:48.698Z,103467.02
2018-09-25T12:03:57.308Z,103460.32
2018-09-25T12:09:06.926Z,103442.34
2018-09-25T12:14:16.337Z,103444.09
2018-09-25T12:19:25.956Z,103435.52
2018-09-25T12:24:35.229Z,103428.45
2018-09-25T12:29:44.539Z,103428.03
2018-09-25T12:34:53.232Z,103437.70
2018-09-25T12:40:01.919Z,103430.56
2018-09-25T12:45:10.762Z,103419.50
2018-09-25T12:58:23.723Z,103411.68
2018-09-25T13:03:32.785Z,103405.27
2018-09-25T13:08:41.991Z,103384.36
2018-09-25T13:13:51.433Z,103371.55
2018-09-25T13:19:01.901Z,103367.61
2018-09-25T13:24:10.579Z,103369.73
2018-09-25T13:29:19.288Z,103367.92
2018-09-25T13:34:27.943Z,103374.23
2018-09-25T13:39:36.770Z,103371.39
2018-09-25T13:44:45.372Z,103380.46
2018-09-25T13:49:54.113Z,103372.98
2018-09-25T13:55:02.701Z,103362.28
2018-09-25T14:00:11.642Z,103355.92
2018-09-25T14:05:20.231Z,103355.67
2018-09-25T14:10:28.904Z,103352.75
2018-09-25T14:15:37.530Z,103351.42
2018-09-25T14:20:46.190Z,103339.41
2018-09-25T14:25:54.820Z,103339.72
2018-09-25T14:31:03.534Z,103335.06
2018-09-25T14:36:12.363Z,103330.63
2018-09-25T14:41:20.911Z,103325.17
2018-09-25T14:46:29.670Z,103320.77
2018-09-25T14:51:38.427Z,103316.05
2018-09-25T14:56:47.224Z,103312.07
2018-09-25T15:01:55.934Z,103319.92
2018-09-25T15:07:04.588Z,103315.67
2018-09-25T15:12:13.292Z,103312.19
2018-09-25T15:17:22.248Z,103304.83
2018-09-25T15:22:30.938Z,103308.97
2018-09-25T15:27:40.029Z,103316.39
2018-09-25T15:32:48.629Z,103311.91
2018-09-25T15:37:57.325Z,103327.63
2018-09-25T15:43:06.203Z,103324.44
2018-09-25T15:48:15.000Z,103327.31
2018-09-25T15:53:23.700Z,103331.81
2018-09-25T15:58:32.351Z,103335.47
2018-09-25T16:03:40.915Z,103327.69
2018-09-25T16:08:49.484Z,103322.13
2018-09-25T16:13:58.140Z,103318.44
2018-09-25T16:19:06.835Z,103323.50
2018-09-25T16:24:15.700Z,103315.35
2018-09-25T16:29:24.519Z,103328.31
2018-09-25T16:34:33.115Z,103344.61
2018-09-25T16:39:41.831Z,103337.90
2018-09-25T16:44:50.362Z,103336.13
2018-09-25T16:49:59.256Z,103340.61
2018-09-25T16:55:08.080Z,103346.98
2018-09-25T17:00:16.898Z,103354.63
2018-09-25T17:05:25.499Z,103351.69
2018-09-25T17:10:34.069Z,103341.75
2018-09-25T17:15:42.599Z,103353.52
2018-09-25T17:20:51.145Z,103350.80
2018-09-25T17:25:59.781Z,103354.02
2018-09-25T17:31:08.587Z,103354.14
2018-09-25T17:36:17.666Z,103358.63
2018-09-25T17:41:27.676Z,103357.42
2018-09-25T17:46:36.523Z,103336.09
2018-09-25T17:51:46.533Z,103313.88
2018-09-25T17:56:56.228Z,103310.39
2018-09-25T18:02:07.597Z,103303.84
2018-09-25T18:07:17.481Z,103295.07
2018-09-25T18:12:27.197Z,103284.97
2018-09-25T18:17:36.948Z,103297.28
2018-09-25T18:22:46.458Z,103301.72
2018-09-25T18:27:57.247Z,103303.09
2018-09-25T18:33:07.427Z,103323.28
2018-09-25T18:38:17.272Z,103311.44
2018-09-25T18:43:26.866Z,103305.33
2018-09-25T18:48:36.582Z,103306.23
2018-09-25T18:53:46.213Z,103333.00
2018-09-25T18:58:57.490Z,103340.02
2018-09-25T19:04:07.406Z,103342.66
2018-09-25T19:09:16.498Z,103337.44
2018-09-25T19:14:25.423Z,103339.20
2018-09-25T19:19:34.018Z,103319.92
2018-09-25T19:24:42.879Z,103327.83
2018-09-25T19:29:52.736Z,103332.66
2018-09-25T19:35:03.890Z,103330.44
2018-09-25T19:40:15.016Z,103331.73
2018-09-25T19:45:25.952Z,103307.61
2018-09-25T19:50:35.939Z,103320.34
2018-09-25T19:55:47.610Z,103307.61
2018-09-25T20:00:59.568Z,103302.34
2018-09-25T20:06:10.481Z,103311.95
2018-09-25T20:11:19.472Z,103305.81
2018-09-25T20:16:30.158Z,103312.38
2018-09-25T20:21:38.882Z,103295.75
2018-09-25T20:26:47.773Z,103297.52
2018-09-25T20:31:56.335Z,103299.22
2018-09-25T20:37:05.541Z,103297.05
2018-09-25T20:42:15.253Z,103300.95
2018-09-25T20:47:24.978Z,103294.39
2018-09-25T20:52:33.974Z,103295.24
2018-09-25T20:57:42.545Z,103292.62
2018-09-25T21:02:51.224Z,103283.44
2018-09-25T21:07:59.859Z,103299.59
2018-09-25T21:13:08.433Z,103300.90
2018-09-25T21:18:17.140Z,103297.81
2018-09-25T21:23:25.961Z,103285.59
2018-09-25T21:28:34.562Z,103283.81
2018-09-25T21:33:43.303Z,103276.83
2018-09-25T21:38:52.040Z,103275.05
2018-09-25T21:44:00.711Z,103273.27
2018-09-25T21:49:09.432Z,103271.94
2018-09-25T21:54:17.963Z,103265.80
2018-09-25T21:59:26.726Z,103254.44
2018-09-25T22:04:35.599Z,103249.61
2018-09-25T22:09:44.351Z,103240.44
2018-09-25T22:14:53.159Z,103233.45
2018-09-25T22:20:01.970Z,103243.47
2018-09-25T22:25:10.769Z,103238.23
2018-09-25T22:30:19.559Z,103238.23
2018-09-25T22:35:28.344Z,103240.01
2018-09-25T22:40:37.027Z,103240.01
2018-09-25T22:45:45.756Z,103232.14
2018-09-25T22:50:54.429Z,103238.22
2018-09-25T22:56:03.195Z,103229.88
2018-09-25T23:01:12.081Z,103224.64
2018-09-25T23:06:20.644Z,103218.93
2018-09-25T23:11:29.348Z,103205.41
2018-09-25T23:16:37.911Z,103194.92
2018-09-25T23:21:46.507Z,103201.88
2018-09-25T23:26:55.091Z,103189.59
2018-09-25T23:32:03.931Z,103190.09
2018-09-25T23:37:12.579Z,103194.03
2018-09-25T23:42:25.280Z,103181.82
2018-09-25T23:47:34.135Z,103170.02
2018-09-25T23:52:41.247Z,103174.80
2018-09-25T23:57:51.875Z,103172.98
